Gravel Ridge, Arkansas
Current Conditions -  °F | °C
As of 11:58 PM on Tuesday 25 Nov 2014 (Local Time) from KLRF Reporting Station
Clear Clear  
Wind Chill: 29°   Ceiling: Unl
Heat Index: 29°   Visibility: 10mi
Dew Point: 25°   Wind: 1mph
Humidity: 86%   Direction: 70°ENE
Pressure: 30.15"   Gusts: NA
Location:  34.9092°N, 92.1561°W
Report Text: KLRF 260558Z AUTO 07001KT 10SM CLR M02/M04 A3015 RMK AO2 SLP215 T10191040 10040 21019 401261040 57015
Loading
Personal Weather Stations






























Interactive Weather Map New forecast layout! Learn more

10-Day Weather Forecast

Advertisements
Track Severe Weather on mobile